| time (UTC) | temp F | wind direction | speed MPH | gust MPH | rain 1hr in | rain 24hr in | rain mn in | humidity % | barometer mb |
| 20260906213202 | 92 | 135 | 1.0 | 2.0 | 0.00 | 0.01 | 0.01 | 27 | 1004.5 |
| 20260906212700 | 90 | 99 | 0.0 | 2.0 | 0.00 | 0.01 | 0.01 | 29 | 1005.0 |
| 20260906212155 | 91 | 127 | 0.0 | 1.0 | 0.00 | 0.01 | 0.01 | 29 | 1004.8 |
| 20260906211654 | 92 | 46 | 1.0 | 3.0 | 0.00 | 0.01 | 0.01 | 28 | 1004.8 |
| 20260906211149 | 90 | 145 | 2.0 | 3.0 | 0.00 | 0.01 | 0.01 | 30 | 1005.0 |
| 20260906210645 | 91 | 56 | 4.0 | 6.0 | 0.00 | 0.01 | 0.01 | 28 | 1005.3 |
| 20260906210140 | 91 | 189 | 2.0 | 3.0 | 0.00 | 0.01 | 0.01 | 28 | 1005.0 |
| 20260906205636 | 92 | 148 | 1.0 | 1.0 | 0.00 | 0.01 | 0.01 | 29 | 1005.3 |
| 20260906205132 | 92 | 134 | 0.0 | 0.0 | 0.00 | 0.01 | 0.01 | 28 | 1005.3 |
| 20260906204631 | 92 | 103 | 1.0 | 1.0 | 0.00 | 0.01 | 0.01 | 28 | 1005.4 |
| 20260906204125 | 92 | 159 | 1.0 | 2.0 | 0.00 | 0.01 | 0.01 | 28 | 1005.3 |
| 20260906203620 | 91 | 47 | 3.0 | 4.0 | 0.00 | 0.01 | 0.01 | 28 | 1005.3 |
| 20260906203120 | 89 | 128 | 1.0 | 2.0 | 0.00 | 0.01 | 0.01 | 28 | 1005.5 |
| 20260906202617 | 90 | 55 | 2.0 | 2.0 | 0.00 | 0.01 | 0.01 | 27 | 1005.4 |
| 20260906202111 | 91 | 178 | 1.0 | 1.0 | 0.00 | 0.01 | 0.01 | 27 | 1005.5 |
| 20260906201606 | 89 | 124 | 1.0 | 1.0 | 0.00 | 0.01 | 0.01 | 28 | 1005.5 |
| 20260906201105 | 89 | 60 | 2.0 | 3.0 | 0.00 | 0.01 | 0.01 | 29 | 1005.8 |
| 20260906200602 | 88 | 357 | 2.0 | 3.0 | 0.00 | 0.01 | 0.01 | 31 | 1005.8 |
| 20260906200057 | 89 | 11 | 4.0 | 6.0 | 0.00 | 0.01 | 0.01 | 30 | 1006.0 |
| 20260906195552 | 89 | 0 | 4.0 | 4.0 | 0.00 | 0.01 | 0.01 | 29 | 1006.0 |
| 20260906195049 | 88 | 57 | 2.0 | 3.0 | 0.00 | 0.01 | 0.01 | 30 | 1005.9 |
| 20260906194544 | 88 | 35 | 1.0 | 2.0 | 0.00 | 0.01 | 0.01 | 30 | 1006.1 |
| 20260906194040 | 89 | 74 | 3.0 | 3.0 | 0.00 | 0.01 | 0.01 | 30 | 1006.0 |
| 20260906193539 | 88 | 104 | 1.0 | 2.0 | 0.00 | 0.01 | 0.01 | 30 | 1006.3 |
| 20260906193035 | 88 | 148 | 1.0 | 2.0 | 0.00 | 0.01 | 0.01 | 30 | 1006.2 |
| 20260906192530 | 88 | 72 | 0.0 | 1.0 | 0.00 | 0.01 | 0.01 | 31 | 1006.2 |
| 20260906192029 | 87 | 146 | 3.0 | 4.0 | 0.00 | 0.01 | 0.01 | 32 | 1006.9 |
| 20260906191525 | 87 | 138 | 0.0 | 1.0 | 0.00 | 0.01 | 0.01 | 32 | 1006.6 |
| 20260906191023 | 86 | 156 | 0.0 | 0.0 | 0.00 | 0.01 | 0.01 | 32 | 1006.6 |
| 20260906190523 | 86 | 60 | 2.0 | 2.0 | 0.00 | 0.01 | 0.01 | 33 | 1007.1 |
| 20260906190018 | 85 | 94 | 4.0 | 4.0 | 0.00 | 0.01 | 0.01 | 33 | 1006.9 |
| 20260906185517 | 85 | 42 | 1.0 | 2.0 | 0.00 | 0.01 | 0.01 | 34 | 1007.1 |
| 20260906185016 | 87 | 56 | 1.0 | 1.0 | 0.00 | 0.01 | 0.01 | 33 | 1007.1 |
| 20260906184511 | 86 | 123 | 0.0 | 0.0 | 0.00 | 0.01 | 0.01 | 34 | 1007.2 |
| 20260906184007 | 84 | 293 | 2.0 | 2.0 | 0.00 | 0.01 | 0.01 | 35 | 1007.2 |
| 20260906183503 | 84 | 0 | 2.0 | 3.0 | 0.00 | 0.01 | 0.01 | 36 | 1007.5 |
| 20260906182958 | 85 | 81 | 1.0 | 1.0 | 0.00 | 0.01 | 0.01 | 36 | 1007.4 |
| 20260906182453 | 85 | 176 | 0.0 | 0.0 | 0.00 | 0.01 | 0.01 | 34 | 1007.5 |
| 20260906181949 | 84 | 57 | 0.0 | 1.0 | 0.00 | 0.01 | 0.01 | 36 | 1007.8 |
| 20260906181444 | 83 | 140 | 0.0 | 0.0 | 0.00 | 0.01 | 0.01 | 36 | 1008.0 |
| 20260906180940 | 82 | 76 | 2.0 | 3.0 | 0.00 | 0.01 | 0.01 | 38 | 1008.0 |
| 20260906180435 | 82 | 168 | 0.0 | 0.0 | 0.00 | 0.01 | 0.01 | 39 | 1008.1 |
| 20260906175933 | 82 | 99 | 2.0 | 3.0 | 0.00 | 0.01 | 0.01 | 41 | 1008.2 |
| 20260906175433 | 83 | 28 | 4.0 | 4.0 | 0.00 | 0.01 | 0.01 | 41 | 1008.4 |
| 20260906174931 | 83 | 333 | 1.0 | 2.0 | 0.00 | 0.01 | 0.01 | 40 | 1008.5 |
| 20260906174426 | 82 | 227 | 1.0 | 2.0 | 0.00 | 0.01 | 0.01 | 41 | 1008.4 |
| 20260906173921 | 80 | 190 | 0.0 | 1.0 | 0.00 | 0.01 | 0.01 | 44 | 1008.4 |
| 20260906173416 | 81 | 218 | 1.0 | 2.0 | 0.00 | 0.01 | 0.01 | 43 | 1008.8 |
| 20260906172915 | 82 | 201 | 1.0 | 1.0 | 0.00 | 0.01 | 0.01 | 41 | 1008.7 |
| 20260906172412 | 82 | 123 | 0.0 | 0.0 | 0.00 | 0.01 | 0.01 | 41 | 1009.1 |
| 20260906171907 | 81 | 154 | 0.0 | 1.0 | 0.00 | 0.01 | 0.01 | 43 | 1008.8 |
| 20260906171401 | 80 | 112 | 2.0 | 2.0 | 0.00 | 0.01 | 0.01 | 44 | 1009.1 |
| 20260906170857 | 81 | 51 | 2.0 | 2.0 | 0.00 | 0.01 | 0.01 | 42 | 1009.2 |
| 20260906170353 | 79 | 172 | 0.0 | 0.0 | 0.00 | 0.01 | 0.01 | 46 | 1009.3 |
| 20260906165849 | 78 | 235 | 1.0 | 2.0 | 0.00 | 0.01 | 0.01 | 45 | 1009.2 |
| 20260906165348 | 78 | 183 | 4.0 | 4.0 | 0.00 | 0.01 | 0.01 | 47 | 1009.3 |
| 20260906164843 | 78 | 103 | 1.0 | 2.0 | 0.00 | 0.01 | 0.01 | 50 | 1009.1 |
| 20260906164342 | 78 | 199 | 0.0 | 1.0 | 0.00 | 0.01 | 0.01 | 48 | 1009.3 |
| 20260906163838 | 78 | 265 | 2.0 | 2.0 | 0.00 | 0.01 | 0.01 | 49 | 1009.2 |
| 20260906163335 | 77 | 157 | 0.0 | 1.0 | 0.00 | 0.01 | 0.01 | 53 | 1009.3 |
| 20260906162832 | 78 | 181 | 1.0 | 2.0 | 0.00 | 0.01 | 0.01 | 51 | 1009.4 |
| 20260906162331 | 78 | 155 | 0.0 | 0.0 | 0.00 | 0.01 | 0.01 | 52 | 1009.2 |
| 20260906161826 | 77 | 149 | 1.0 | 2.0 | 0.00 | 0.01 | 0.01 | 51 | 1009.2 |
| 20260906161326 | 75 | 172 | 0.0 | 0.0 | 0.00 | 0.01 | 0.01 | 56 | 1009.2 |
| 20260906160825 | 75 | 271 | 2.0 | 3.0 | 0.00 | 0.01 | 0.01 | 55 | 1009.2 |
| 20260906160319 | 75 | 175 | 0.0 | 0.0 | 0.00 | 0.01 | 0.01 | 56 | 1009.4 |
| 20260906155817 | 74 | 173 | 1.0 | 1.0 | 0.00 | 0.01 | 0.01 | 56 | 1009.4 |
| 20260906155311 | 73 | 181 | 0.0 | 0.0 | 0.00 | 0.01 | 0.01 | 58 | 1009.4 |
| 20260906154808 | 72 | 92 | 1.0 | 1.0 | 0.00 | 0.01 | 0.01 | 61 | 1009.1 |
| 20260906154302 | 73 | 337 | 2.0 | 2.0 | 0.00 | 0.01 | 0.01 | 60 | 1009.5 |
| 20260906153800 | 73 | 214 | 1.0 | 2.0 | 0.00 | 0.01 | 0.01 | 60 | 1009.4 |
| 20260906153254 | 73 | 212 | 2.0 | 2.0 | 0.00 | 0.01 | 0.01 | 60 | 1009.5 |
| 20260906152750 | 71 | 186 | 0.0 | 0.0 | 0.00 | 0.01 | 0.01 | 63 | 1009.5 |
| 20260906152244 | 70 | 187 | 1.0 | 1.0 | 0.00 | 0.01 | 0.01 | 64 | 1009.8 |
| 20260906151744 | 70 | 145 | 0.0 | 0.0 | 0.00 | 0.01 | 0.01 | 65 | 1009.5 |
| 20260906151239 | 70 | 352 | 4.0 | 4.0 | 0.00 | 0.01 | 0.01 | 65 | 1009.7 |
| 20260906150735 | 69 | 205 | 0.0 | 1.0 | 0.00 | 0.01 | 0.01 | 67 | 1009.7 |
| 20260906150231 | 69 | 220 | 2.0 | 3.0 | 0.00 | 0.01 | 0.01 | 67 | 1009.4 |
| 20260906145729 | 69 | 178 | 2.0 | 2.0 | 0.00 | 0.01 | 0.01 | 67 | 1009.3 |
| 20260906145228 | 69 | 189 | 0.0 | 1.0 | 0.00 | 0.01 | 0.01 | 68 | 1009.4 |
| 20260906144724 | 69 | 240 | 3.0 | 3.0 | 0.00 | 0.01 | 0.01 | 68 | 1009.4 |
| 20260906144219 | 68 | 172 | 0.0 | 1.0 | 0.00 | 0.01 | 0.01 | 68 | 1009.5 |
| 20260906143718 | 68 | 197 | 0.0 | 0.0 | 0.00 | 0.01 | 0.01 | 69 | 1009.2 |
| 20260906143215 | 68 | 233 | 2.0 | 2.0 | 0.00 | 0.01 | 0.01 | 69 | 1009.1 |
| 20260906142714 | 68 | 274 | 4.0 | 4.0 | 0.00 | 0.01 | 0.01 | 69 | 1009.3 |
| 20260906142210 | 67 | 179 | 0.0 | 0.0 | 0.00 | 0.01 | 0.01 | 71 | 1009.3 |
| 20260906141708 | 66 | 253 | 3.0 | 4.0 | 0.00 | 0.01 | 0.01 | 71 | 1009.4 |
| 20260906141203 | 66 | 184 | 0.0 | 0.0 | 0.00 | 0.01 | 0.01 | 72 | 1009.4 |
| 20260906140703 | 66 | 233 | 4.0 | 6.0 | 0.00 | 0.01 | 0.01 | 72 | 1009.5 |
| 20260906140158 | 66 | 180 | 0.0 | 0.0 | 0.00 | 0.01 | 0.01 | 73 | 1009.4 |
| 20260906135654 | 65 | 254 | 4.0 | 4.0 | 0.00 | 0.01 | 0.01 | 73 | 1009.4 |
| 20260906135151 | 65 | 229 | 1.0 | 1.0 | 0.00 | 0.01 | 0.01 | 73 | 1009.4 |
| 20260906134646 | 65 | 228 | 2.0 | 2.0 | 0.00 | 0.01 | 0.01 | 73 | 1009.3 |
| 20260906134141 | 65 | 183 | 0.0 | 0.0 | 0.00 | 0.01 | 0.01 | 73 | 1009.3 |
| 20260906133637 | 64 | 237 | 1.0 | 1.0 | 0.00 | 0.01 | 0.01 | 73 | 1009.2 |
| 20260906133137 | 64 | 190 | 1.0 | 1.0 | 0.00 | 0.01 | 0.01 | 73 | 1009.2 |
| 20260906132632 | 63 | 191 | 0.0 | 1.0 | 0.00 | 0.01 | 0.01 | 74 | 1009.3 |
| 20260906132128 | 62 | 188 | 1.0 | 1.0 | 0.00 | 0.01 | 0.01 | 74 | 1009.2 |
| 20260906131624 | 62 | 174 | 0.0 | 0.0 | 0.00 | 0.01 | 0.01 | 75 | 1009.2 |
| 20260906131119 | 61 | 175 | 1.0 | 1.0 | 0.00 | 0.01 | 0.01 | 75 | 1009.1 |
| 20260906130614 | 61 | 167 | 0.0 | 0.0 | 0.00 | 0.01 | 0.01 | 76 | 1009.1 |
| 20260906130109 | 60 | 150 | 0.0 | 0.0 | 0.00 | 0.01 | 0.01 | 76 | 1009.2 |
| 20260906125607 | 60 | 150 | 0.0 | 0.0 | 0.00 | 0.01 | 0.01 | 76 | 1009.2 |
| 20260906125106 | 60 | 150 | 0.0 | 0.0 | 0.00 | 0.01 | 0.01 | 75 | 1009.3 |
| 20260906124601 | 60 | 151 | 1.0 | 1.0 | 0.00 | 0.01 | 0.01 | 75 | 1008.9 |
| 20260906124056 | 60 | 200 | 0.0 | 0.0 | 0.00 | 0.01 | 0.01 | 75 | 1008.6 |
| 20260906123555 | 61 | 201 | 0.0 | 0.0 | 0.00 | 0.01 | 0.01 | 75 | 1009.1 |
| 20260906123051 | 61 | 201 | 0.0 | 0.0 | 0.00 | 0.01 | 0.01 | 74 | 1008.7 |
| 20260906122550 | 61 | 201 | 0.0 | 0.0 | 0.00 | 0.01 | 0.01 | 74 | 1008.8 |
| 20260906122046 | 61 | 201 | 0.0 | 0.0 | 0.00 | 0.01 | 0.01 | 74 | 1008.9 |
| 20260906121542 | 61 | 190 | 0.0 | 0.0 | 0.00 | 0.01 | 0.01 | 74 | 1008.8 |
| 20260906121038 | 61 | 189 | 1.0 | 1.0 | 0.00 | 0.01 | 0.01 | 74 | 1008.8 |
| 20260906120533 | 61 | 163 | 0.0 | 0.0 | 0.00 | 0.01 | 0.01 | 73 | 1008.5 |
| 20260906120031 | 61 | 161 | 0.0 | 1.0 | 0.00 | 0.01 | 0.01 | 73 | 1009.1 |
| 20260906115530 | 61 | 202 | 0.0 | 0.0 | 0.00 | 0.01 | 0.01 | 72 | 1008.5 |
| 20260906115025 | 61 | 196 | 1.0 | 1.0 | 0.00 | 0.01 | 0.01 | 71 | 1008.5 |
| 20260906114520 | 61 | 180 | 0.0 | 0.0 | 0.00 | 0.01 | 0.01 | 71 | 1008.7 |
| 20260906114016 | 61 | 180 | 1.0 | 1.0 | 0.00 | 0.01 | 0.01 | 71 | 1008.7 |
| 20260906113514 | 62 | 201 | 0.0 | 0.0 | 0.00 | 0.01 | 0.01 | 70 | 1008.8 |
| 20260906113010 | 62 | 190 | 0.0 | 0.0 | 0.00 | 0.01 | 0.01 | 69 | 1008.7 |
| 20260906112504 | 62 | 190 | 0.0 | 0.0 | 0.00 | 0.01 | 0.01 | 69 | 1008.6 |
| 20260906112001 | 62 | 190 | 0.0 | 0.0 | 0.00 | 0.01 | 0.01 | 68 | 1008.5 |
| 20260906111500 | 62 | 190 | 0.0 | 0.0 | 0.00 | 0.01 | 0.01 | 68 | 1008.7 |
| 20260906110955 | 62 | 188 | 0.0 | 0.0 | 0.00 | 0.01 | 0.01 | 67 | 1008.7 |
| 20260906110450 | 62 | 188 | 1.0 | 1.0 | 0.00 | 0.01 | 0.01 | 67 | 1008.8 |
| 20260906105949 | 62 | 184 | 0.0 | 0.0 | 0.00 | 0.01 | 0.01 | 67 | 1008.7 |
| 20260906105445 | 62 | 192 | 2.0 | 2.0 | 0.00 | 0.01 | 0.01 | 67 | 1008.7 |
| 20260906104941 | 62 | 181 | 0.0 | 0.0 | 0.00 | 0.01 | 0.01 | 67 | 1008.2 |
| 20260906104439 | 62 | 167 | 0.0 | 1.0 | 0.00 | 0.01 | 0.01 | 67 | 1008.4 |
| 20260906103939 | 62 | 169 | 0.0 | 0.0 | 0.00 | 0.01 | 0.01 | 67 | 1008.5 |
| 20260906103437 | 62 | 178 | 1.0 | 1.0 | 0.00 | 0.01 | 0.01 | 66 | 1008.1 |
| 20260906102932 | 63 | 158 | 0.0 | 0.0 | 0.00 | 0.01 | 0.01 | 67 | 1008.1 |
| 20260906102432 | 63 | 158 | 0.0 | 0.0 | 0.00 | 0.01 | 0.01 | 65 | 1008.1 |
| 20260906101927 | 63 | 181 | 0.0 | 0.0 | 0.00 | 0.01 | 0.01 | 64 | 1008.1 |
| 20260906101422 | 63 | 182 | 0.0 | 1.0 | 0.00 | 0.01 | 0.01 | 66 | 1008.1 |
| 20260906100918 | 63 | 160 | 0.0 | 1.0 | 0.00 | 0.01 | 0.01 | 66 | 1008.2 |
| 20260906100417 | 63 | 183 | 0.0 | 1.0 | 0.00 | 0.01 | 0.01 | 66 | 1008.1 |
| 20260906095912 | 63 | 184 | 0.0 | 0.0 | 0.00 | 0.01 | 0.01 | 67 | 1008.2 |
| 20260906095408 | 63 | 183 | 0.0 | 0.0 | 0.00 | 0.01 | 0.01 | 67 | 1008.0 |
| 20260906094908 | 63 | 183 | 0.0 | 0.0 | 0.00 | 0.01 | 0.01 | 67 | 1008.4 |
| 20260906094403 | 63 | 187 | 0.0 | 0.0 | 0.00 | 0.01 | 0.01 | 67 | 1008.1 |
| 20260906093859 | 63 | 187 | 0.0 | 1.0 | 0.00 | 0.01 | 0.01 | 68 | 1008.0 |
| 20260906093354 | 63 | 184 | 1.0 | 1.0 | 0.00 | 0.01 | 0.01 | 70 | 1008.1 |
| 20260906092848 | 63 | 193 | 0.0 | 0.0 | 0.00 | 0.01 | 0.01 | 70 | 1008.2 |
| 20260906092344 | 63 | 192 | 1.0 | 1.0 | 0.00 | 0.01 | 0.01 | 70 | 1008.1 |
| 20260906091839 | 63 | 168 | 0.0 | 0.0 | 0.00 | 0.01 | 0.01 | 70 | 1008.1 |
| 20260906091335 | 64 | 167 | 0.0 | 0.0 | 0.00 | 0.01 | 0.01 | 70 | 1007.9 |
| 20260906090832 | 64 | 165 | 0.0 | 0.0 | 0.00 | 0.01 | 0.01 | 69 | 1008.1 |
| 20260906090330 | 64 | 165 | 0.0 | 0.0 | 0.00 | 0.01 | 0.01 | 68 | 1008.0 |
| 20260906085830 | 64 | 180 | 0.0 | 0.0 | 0.00 | 0.01 | 0.01 | 67 | 1007.9 |
| 20260906085329 | 64 | 134 | 0.0 | 0.0 | 0.00 | 0.01 | 0.01 | 66 | 1007.6 |
| 20260906084824 | 64 | 155 | 0.0 | 0.0 | 0.00 | 0.01 | 0.01 | 66 | 1007.9 |
| 20260906084318 | 64 | 155 | 0.0 | 0.0 | 0.00 | 0.01 | 0.01 | 66 | 1008.0 |
| 20260906083813 | 65 | 154 | 0.0 | 0.0 | 0.00 | 0.01 | 0.01 | 67 | 1007.6 |
| 20260906083308 | 65 | 150 | 0.0 | 1.0 | 0.00 | 0.01 | 0.01 | 65 | 1008.0 |
| 20260906082803 | 65 | 144 | 0.0 | 0.0 | 0.00 | 0.01 | 0.01 | 65 | 1008.1 |
| 20260906082258 | 66 | 145 | 0.0 | 0.0 | 0.00 | 0.01 | 0.01 | 63 | 1007.9 |
| 20260906081754 | 66 | 161 | 1.0 | 1.0 | 0.00 | 0.01 | 0.01 | 62 | 1008.1 |
| 20260906081249 | 67 | 102 | 1.0 | 1.0 | 0.00 | 0.01 | 0.01 | 61 | 1008.2 |
| 20260906080745 | 67 | 173 | 0.0 | 0.0 | 0.00 | 0.01 | 0.01 | 57 | 1008.1 |
| 20260906080242 | 67 | 173 | 0.0 | 0.0 | 0.00 | 0.01 | 0.01 | 57 | 1008.4 |
| 20260906075741 | 66 | 173 | 0.0 | 1.0 | 0.00 | 0.01 | 0.01 | 60 | 1008.0 |
| 20260906075236 | 66 | 167 | 1.0 | 1.0 | 0.00 | 0.01 | 0.01 | 61 | 1008.0 |
| 20260906074731 | 67 | 161 | 0.0 | 0.0 | 0.00 | 0.01 | 0.01 | 58 | 1008.1 |
| 20260906074230 | 67 | 158 | 0.0 | 0.0 | 0.00 | 0.01 | 0.01 | 57 | 1008.0 |
| 20260906073730 | 66 | 158 | 0.0 | 0.0 | 0.00 | 0.01 | 0.01 | 59 | 1007.9 |
| 20260906073225 | 67 | 236 | 0.0 | 0.0 | 0.00 | 0.01 | 0.01 | 60 | 1007.9 |
| 20260906072721 | 68 | 236 | 0.0 | 0.0 | 0.00 | 0.01 | 0.01 | 59 | 1007.8 |
| 20260906072217 | 68 | 236 | 0.0 | 0.0 | 0.00 | 0.01 | 0.01 | 54 | 1007.5 |
| 20260906071713 | 69 | 206 | 0.0 | 1.0 | 0.00 | 0.01 | 0.01 | 55 | 1007.5 |
| 20260906071212 | 68 | 215 | 2.0 | 3.0 | 0.00 | 0.01 | 0.01 | 54 | 1007.5 |
| 20260906070709 | 69 | 180 | 1.0 | 1.0 | 0.00 | 0.01 | 0.01 | 54 | 1007.3 |
| 20260906070204 | 69 | 175 | 1.0 | 1.0 | 0.00 | 0.01 | 0.01 | 52 | 1007.2 |
| 20260906065703 | 69 | 193 | 3.0 | 3.0 | 0.00 | 0.01 | 0.01 | 53 | 1007.5 |
| 20260906065159 | 69 | 186 | 2.0 | 2.0 | 0.00 | 0.01 | 0.01 | 52 | 1007.2 |
| 20260906064654 | 69 | 201 | 1.0 | 1.0 | 0.00 | 0.01 | 0.01 | 52 | 1007.4 |
| 20260906064149 | 69 | 224 | 1.0 | 2.0 | 0.00 | 0.01 | 0.01 | 54 | 1007.2 |
| 20260906063644 | 69 | 250 | 3.0 | 3.0 | 0.00 | 0.01 | 0.01 | 54 | 1007.2 |
| 20260906063140 | 69 | 235 | 3.0 | 4.0 | 0.00 | 0.01 | 0.01 | 58 | 1007.2 |
| 20260906062636 | 69 | 195 | 1.0 | 1.0 | 0.00 | 0.01 | 0.01 | 54 | 1007.5 |
| 20260906062134 | 68 | 226 | 1.0 | 1.0 | 0.00 | 0.01 | 0.01 | 59 | 1007.5 |
| 20260906061632 | 68 | 226 | 2.0 | 2.0 | 0.00 | 0.01 | 0.01 | 58 | 1007.5 |
| 20260906061131 | 67 | 218 | 2.0 | 3.0 | 0.07 | 0.01 | 0.01 | 59 | 1007.6 |
| 20260906060628 | 72 | 239 | 3.0 | 4.0 | 0.42 | 0.01 | 0.01 | 57 | 1007.6 |
| 20260906060125 | 70 | 335 | 5.0 | 9.0 | 0.35 | 0.00 | 0.00 | 51 | 1008.4 |
| 20260906055620 | 76 | 124 | 2.0 | 3.0 | 0.00 | 0.00 | 0.00 | 37 | 1008.4 |
| 20260906055115 | 76 | 180 | 4.0 | 7.0 | 0.00 | 0.00 | 0.00 | 35 | 1008.4 |
| 20260906054610 | 76 | 219 | 3.0 | 3.0 | 0.00 | 0.00 | 0.00 | 34 | 1008.0 |
| 20260906054105 | 76 | 239 | 3.0 | 4.0 | 0.00 | 0.00 | 0.00 | 35 | 1007.9 |
| 20260906053602 | 76 | 185 | 4.0 | 6.0 | 0.00 | 0.00 | 0.00 | 35 | 1008.1 |
| 20260906053057 | 76 | 192 | 2.0 | 2.0 | 0.00 | 0.00 | 0.00 | 36 | 1007.8 |
| 20260906052552 | 76 | 252 | 4.0 | 4.0 | 0.00 | 0.00 | 0.00 | 36 | 1007.8 |
| 20260906052049 | 76 | 203 | 1.0 | 2.0 | 0.00 | 0.00 | 0.00 | 36 | 1008.0 |
| 20260906051544 | 75 | 225 | 2.0 | 2.0 | 0.00 | 0.00 | 0.00 | 36 | 1008.0 |
| 20260906051040 | 75 | 243 | 2.0 | 2.0 | 0.00 | 0.00 | 0.00 | 36 | 1008.0 |
| 20260906050535 | 74 | 217 | 3.0 | 3.0 | 0.00 | 0.00 | 0.00 | 37 | 1008.2 |
| 20260906050030 | 75 | 184 | 3.0 | 3.0 | 0.00 | 0.00 | 0.00 | 37 | 1008.0 |
| 20260906045523 | 75 | 204 | 1.0 | 1.0 | 0.00 | 0.00 | 0.00 | 36 | 1008.4 |
| 20260906045018 | 75 | 239 | 2.0 | 2.0 | 0.00 | 0.00 | 0.00 | 36 | 1008.2 |
| 20260906044514 | 75 | 186 | 0.0 | 1.0 | 0.00 | 0.00 | 0.00 | 36 | 1008.2 |
| 20260906044009 | 76 | 181 | 0.0 | 0.0 | 0.00 | 0.00 | 0.00 | 35 | 1008.6 |
| 20260906043504 | 76 | 166 | 0.0 | 0.0 | 0.00 | 0.00 | 0.00 | 35 | 1008.1 |
| 20260906043000 | 76 | 156 | 0.0 | 0.0 | 0.00 | 0.00 | 0.00 | 35 | 1008.5 |
| 20260906042459 | 76 | 149 | 0.0 | 0.0 | 0.00 | 0.00 | 0.00 | 34 | 1008.4 |
| 20260906041959 | 77 | 149 | 0.0 | 0.0 | 0.00 | 0.00 | 0.00 | 33 | 1008.4 |
| 20260906041455 | 78 | 150 | 0.0 | 0.0 | 0.00 | 0.00 | 0.00 | 32 | 1008.2 |
| 20260906040955 | 77 | 122 | 0.0 | 0.0 | 0.00 | 0.00 | 0.00 | 32 | 1008.1 |
| 20260906040450 | 77 | 143 | 2.0 | 3.0 | 0.00 | 0.00 | 0.00 | 32 | 1008.4 |
| 20260906035945 | 76 | 132 | 2.0 | 2.0 | 0.00 | 0.00 | 0.00 | 33 | 1008.0 |
| 20260906035440 | 76 | 147 | 5.0 | 6.0 | 0.00 | 0.00 | 0.00 | 33 | 1008.0 |
| 20260906034936 | 76 | 141 | 2.0 | 2.0 | 0.00 | 0.00 | 0.00 | 35 | 1007.4 |
| 20260906034431 | 77 | 121 | 0.0 | 0.0 | 0.00 | 0.00 | 0.00 | 33 | 1007.3 |
| 20260906033926 | 77 | 59 | 0.0 | 1.0 | 0.00 | 0.00 | 0.00 | 32 | 1007.5 |
| 20260906033421 | 77 | 359 | 1.0 | 3.0 | 0.00 | 0.00 | 0.00 | 32 | 1007.4 |
| 20260906032916 | 77 | 93 | 1.0 | 1.0 | 0.00 | 0.00 | 0.00 | 32 | 1007.3 |
| 20260906032413 | 77 | 115 | 1.0 | 1.0 | 0.00 | 0.00 | 0.00 | 31 | 1007.2 |
| 20260906031907 | 78 | 101 | 0.0 | 1.0 | 0.00 | 0.00 | 0.00 | 31 | 1007.1 |
| 20260906031403 | 78 | 118 | 0.0 | 0.0 | 0.00 | 0.00 | 0.00 | 30 | 1007.1 |
| 20260906030857 | 79 | 122 | 0.0 | 1.0 | 0.00 | 0.00 | 0.00 | 30 | 1006.8 |
| 20260906030352 | 79 | 46 | 1.0 | 2.0 | 0.00 | 0.00 | 0.00 | 30 | 1007.1 |
| 20260906025847 | 80 | 107 | 0.0 | 0.0 | 0.00 | 0.00 | 0.00 | 29 | 1006.9 |
| 20260906025341 | 80 | 114 | 0.0 | 1.0 | 0.00 | 0.00 | 0.00 | 29 | 1006.8 |
| 20260906024840 | 80 | 100 | 2.0 | 2.0 | 0.00 | 0.00 | 0.00 | 29 | 1006.7 |
| 20260906024339 | 80 | 345 | 3.0 | 3.0 | 0.00 | 0.00 | 0.00 | 28 | 1006.7 |
| 20260906023835 | 81 | 67 | 1.0 | 1.0 | 0.00 | 0.00 | 0.00 | 28 | 1006.6 |
| 20260906023331 | 81 | 351 | 2.0 | 2.0 | 0.00 | 0.00 | 0.00 | 27 | 1006.7 |
| 20260906022826 | 81 | 168 | 0.0 | 0.0 | 0.00 | 0.00 | 0.00 | 27 | 1006.7 |
| 20260906022321 | 82 | 199 | 3.0 | 3.0 | 0.00 | 0.00 | 0.00 | 26 | 1007.1 |
| 20260906021817 | 82 | 315 | 2.0 | 2.0 | 0.00 | 0.00 | 0.00 | 26 | 1006.6 |
| 20260906021315 | 82 | 328 | 2.0 | 2.0 | 0.00 | 0.00 | 0.00 | 26 | 1006.3 |
| 20260906020810 | 82 | 271 | 2.0 | 2.0 | 0.00 | 0.00 | 0.00 | 26 | 1006.6 |
| 20260906020310 | 82 | 221 | 1.0 | 1.0 | 0.00 | 0.00 | 0.00 | 26 | 1006.7 |
| 20260906015804 | 83 | 343 | 2.0 | 2.0 | 0.00 | 0.00 | 0.00 | 25 | 1006.5 |
| 20260906015305 | 83 | 131 | 1.0 | 3.0 | 0.00 | 0.00 | 0.00 | 25 | 1006.3 |
| 20260906014802 | 82 | 340 | 3.0 | 4.0 | 0.00 | 0.00 | 0.00 | 26 | 1006.1 |
| 20260906014258 | 82 | 154 | 0.0 | 0.0 | 0.00 | 0.00 | 0.00 | 26 | 1006.1 |
| 20260906013755 | 83 | 153 | 0.0 | 0.0 | 0.00 | 0.00 | 0.00 | 26 | 1006.0 |
| 20260906013255 | 84 | 153 | 0.0 | 0.0 | 0.00 | 0.00 | 0.00 | 25 | 1005.5 |
| 20260906012750 | 84 | 153 | 0.0 | 0.0 | 0.00 | 0.00 | 0.00 | 25 | 1006.0 |
| 20260906012245 | 84 | 153 | 0.0 | 0.0 | 0.00 | 0.00 | 0.00 | 24 | 1005.5 |
| 20260906011740 | 85 | 153 | 0.0 | 0.0 | 0.00 | 0.00 | 0.00 | 23 | 1005.6 |
| 20260906011240 | 85 | 153 | 0.0 | 0.0 | 0.00 | 0.00 | 0.00 | 23 | 1005.6 |
| 20260906010735 | 86 | 126 | 0.0 | 0.0 | 0.00 | 0.00 | 0.00 | 22 | 1005.6 |
| 20260906010232 | 86 | 138 | 0.0 | 0.0 | 0.00 | 0.00 | 0.00 | 22 | 1005.4 |
| 20260906005727 | 88 | 152 | 0.0 | 0.0 | 0.00 | 0.00 | 0.00 | 22 | 1005.8 |
| 20260906005220 | 90 | 210 | 1.0 | 2.0 | 0.00 | 0.00 | 0.00 | 20 | 1005.8 |
| 20260906004719 | 90 | 153 | 0.0 | 0.0 | 0.00 | 0.00 | 0.00 | 19 | 1005.9 |
| 20260906004215 | 91 | 153 | 0.0 | 0.0 | 0.00 | 0.00 | 0.00 | 20 | 1005.4 |
| 20260906003709 | 92 | 153 | 0.0 | 0.0 | 0.00 | 0.00 | 0.00 | 19 | 1005.5 |
| 20260906003205 | 92 | 176 | 0.0 | 0.0 | 0.00 | 0.00 | 0.00 | 18 | 1005.5 |
| 20260906002706 | 92 | 240 | 2.0 | 2.0 | 0.00 | 0.00 | 0.00 | 17 | 1005.5 |
| 20260906002200 | 93 | 153 | 0.0 | 0.0 | 0.00 | 0.00 | 0.00 | 17 | 1005.5 |
| 20260906001655 | 92 | 150 | 0.0 | 1.0 | 0.00 | 0.00 | 0.00 | 17 | 1005.4 |
| 20260906001155 | 92 | 145 | 0.0 | 0.0 | 0.00 | 0.00 | 0.00 | 17 | 1005.4 |
| 20260906000651 | 93 | 171 | 0.0 | 0.0 | 0.00 | 0.00 | 0.00 | 17 | 1005.3 |
| 20260906000146 | 92 | 211 | 1.0 | 1.0 | 0.00 | 0.00 | 0.00 | 17 | 1005.4 |
| 20260905235645 | 92 | 260 | 0.0 | 1.0 | 0.00 | 0.00 | 0.00 | 18 | 1005.2 |
| 20260905235140 | 92 | 251 | 0.0 | 1.0 | 0.00 | 0.00 | 0.00 | 18 | 1005.3 |
| 20260905234635 | 91 | 118 | 0.0 | 1.0 | 0.00 | 0.00 | 0.00 | 18 | 1005.4 |
| 20260905234132 | 93 | 148 | 0.0 | 0.0 | 0.00 | 0.00 | 0.00 | 17 | 1005.2 |
| 20260905233631 | 92 | 52 | 1.0 | 2.0 | 0.00 | 0.00 | 0.00 | 18 | 1005.4 |
| 20260905233125 | 92 | 90 | 0.0 | 1.0 | 0.00 | 0.00 | 0.00 | 18 | 1005.3 |
| 20260905232621 | 93 | 182 | 1.0 | 1.0 | 0.00 | 0.00 | 0.00 | 18 | 1005.4 |
| 20260905232117 | 93 | 186 | 1.0 | 1.0 | 0.00 | 0.00 | 0.00 | 17 | 1005.0 |
| 20260905231617 | 92 | 211 | 0.0 | 1.0 | 0.00 | 0.00 | 0.00 | 17 | 1005.2 |
| 20260905231113 | 92 | 38 | 2.0 | 2.0 | 0.00 | 0.00 | 0.00 | 19 | 1005.3 |
| 20260905230609 | 93 | 219 | 2.0 | 3.0 | 0.00 | 0.00 | 0.00 | 18 | 1005.2 |
| 20260905230107 | 92 | 264 | 2.0 | 3.0 | 0.00 | 0.00 | 0.00 | 18 | 1005.4 |
| 20260905225606 | 93 | 332 | 4.0 | 6.0 | 0.00 | 0.00 | 0.00 | 17 | 1005.3 |
| 20260905225101 | 93 | 316 | 2.0 | 3.0 | 0.00 | 0.00 | 0.00 | 18 | 1005.3 |
| 20260905224601 | 91 | 14 | 2.0 | 3.0 | 0.00 | 0.00 | 0.00 | 18 | 1005.2 |
| 20260905224101 | 91 | 30 | 2.0 | 2.0 | 0.00 | 0.00 | 0.00 | 18 | 1005.2 |
| 20260905223558 | 92 | 64 | 1.0 | 1.0 | 0.00 | 0.00 | 0.00 | 18 | 1005.5 |
| 20260905223054 | 93 | 344 | 2.0 | 2.0 | 0.00 | 0.00 | 0.00 | 18 | 1005.4 |
| 20260905222554 | 93 | 265 | 2.0 | 2.0 | 0.00 | 0.00 | 0.00 | 17 | 1005.4 |
| 20260905222049 | 93 | 63 | 3.0 | 3.0 | 0.00 | 0.00 | 0.00 | 17 | 1005.2 |
| 20260905221545 | 92 | 290 | 3.0 | 6.0 | 0.00 | 0.00 | 0.00 | 18 | 1005.3 |
| 20260905221042 | 93 | 31 | 3.0 | 4.0 | 0.00 | 0.00 | 0.00 | 18 | 1005.5 |
| 20260905220537 | 92 | 95 | 2.0 | 3.0 | 0.00 | 0.00 | 0.00 | 18 | 1005.8 |
| 20260905220033 | 92 | 31 | 2.0 | 2.0 | 0.00 | 0.00 | 0.00 | 18 | 1005.2 |
| 20260905215532 | 93 | 342 | 4.0 | 7.0 | 0.00 | 0.00 | 0.00 | 17 | 1005.4 |
| 20260905215028 | 93 | 28 | 2.0 | 2.0 | 0.00 | 0.00 | 0.00 | 17 | 1005.8 |
| 20260905214524 | 93 | 255 | 2.0 | 2.0 | 0.00 | 0.00 | 0.00 | 17 | 1005.8 |
| 20260905214019 | 95 | 62 | 2.0 | 3.0 | 0.00 | 0.00 | 0.00 | 17 | 1005.5 |
| 20260905213514 | 94 | 212 | 2.0 | 2.0 | 0.00 | 0.00 | 0.00 | 17 | 1005.9 |